JBU299 KLGA-KMCO
Flight info
| Callsign | JBU299 |
|---|---|
| Flight time | 2h 20m |
| Altitude | 34000 |
| Route | WHITE Q409 CRPLR Q85 LPERD GTOUT1 |
| Aircraft | A320/M-SDE3FGHIRWY/LB1 |
Departure
| Time | 2026-05-07 18:37 |
|---|---|
| Airport | LaGuardia Airport (KLGA) |
Arrival
| Time | 2026-05-07 20:57 |
|---|---|
| Airport | Orlando International Airport (KMCO) |
| Time | Latitude | Longitude | Altitude | Speed | Heading |
|---|---|---|---|---|---|
| 2026-05-07 18:06 | 40.77313 | -73.86928 | 18 ft | 0 kts | 43° |
| 2026-05-07 18:29 | 40.77297 | -73.86945 | 21 ft | 4 kts | 25° |
| 2026-05-07 18:29 | 40.77272 | -73.86953 | 18 ft | 4 kts | 351° |
| 2026-05-07 18:30 | 40.77250 | -73.86941 | 19 ft | 2 kts | 313° |
| 2026-05-07 18:30 | 40.77248 | -73.86939 | 19 ft | 0 kts | 312° |
| 2026-05-07 18:32 | 40.77258 | -73.86952 | 18 ft | 3 kts | 313° |
| 2026-05-07 18:32 | 40.77279 | -73.86983 | 17 ft | 7 kts | 313° |
| 2026-05-07 18:32 | 40.77317 | -73.87037 | 17 ft | 9 kts | 313° |
| 2026-05-07 18:33 | 40.77364 | -73.87104 | 17 ft | 11 kts | 314° |
| 2026-05-07 18:33 | 40.77418 | -73.87197 | 17 ft | 14 kts | 294° |
| 2026-05-07 18:33 | 40.77431 | -73.87334 | 18 ft | 16 kts | 270° |
| 2026-05-07 18:33 | 40.77445 | -73.87482 | 18 ft | 17 kts | 284° |
| 2026-05-07 18:34 | 40.77497 | -73.87605 | 18 ft | 16 kts | 302° |
| 2026-05-07 18:34 | 40.77546 | -73.87721 | 18 ft | 11 kts | 273° |
| 2026-05-07 18:34 | 40.77485 | -73.87794 | 19 ft | 13 kts | 212° |
| 2026-05-07 18:34 | 40.77402 | -73.87862 | 19 ft | 15 kts | 212° |
| 2026-05-07 18:35 | 40.77309 | -73.87939 | 19 ft | 17 kts | 210° |
| 2026-05-07 18:35 | 40.77206 | -73.88024 | 20 ft | 18 kts | 212° |
| 2026-05-07 18:35 | 40.77092 | -73.88118 | 19 ft | 19 kts | 213° |
| 2026-05-07 18:35 | 40.77017 | -73.88190 | 20 ft | 13 kts | 222° |
| 2026-05-07 18:36 | 40.76950 | -73.88278 | 22 ft | 13 kts | 227° |
| 2026-05-07 18:36 | 40.76917 | -73.88372 | 25 ft | 8 kts | 282° |
| 2026-05-07 18:36 | 40.76975 | -73.88364 | 25 ft | 16 kts | 32° |
| 2026-05-07 18:36 | 40.77292 | -73.88102 | 23 ft | 90 kts | 32° |
| 2026-05-07 18:37 | 40.77999 | -73.87518 | 20 ft | 147 kts | 32° |
| 2026-05-07 18:37 | 40.78921 | -73.86753 | 479 ft | 156 kts | 30° |
| 2026-05-07 18:37 | 40.79843 | -73.86035 | 1234 ft | 152 kts | 18° |
| 2026-05-07 18:37 | 40.80912 | -73.85831 | 1499 ft | 170 kts | 354° |
| 2026-05-07 18:38 | 40.82148 | -73.86052 | 1873 ft | 188 kts | 348° |
| 2026-05-07 18:38 | 40.83493 | -73.86476 | 2209 ft | 209 kts | 335° |
| 2026-05-07 18:38 | 40.84629 | -73.87793 | 2525 ft | 233 kts | 299° |
| 2026-05-07 18:38 | 40.84928 | -73.89945 | 3006 ft | 252 kts | 260° |
| 2026-05-07 18:39 | 40.84100 | -73.91997 | 3827 ft | 263 kts | 224° |
| 2026-05-07 18:39 | 40.82522 | -73.93261 | 4723 ft | 270 kts | 204° |
| 2026-05-07 18:39 | 40.80728 | -73.94038 | 5618 ft | 273 kts | 197° |
| 2026-05-07 18:39 | 40.78871 | -73.94638 | 6483 ft | 277 kts | 195° |
| 2026-05-07 18:40 | 40.76982 | -73.95217 | 7311 ft | 279 kts | 198° |
| 2026-05-07 18:40 | 40.75100 | -73.95830 | 8221 ft | 278 kts | 200° |
| 2026-05-07 18:40 | 40.73237 | -73.96486 | 9127 ft | 276 kts | 203° |
| 2026-05-07 18:40 | 40.71401 | -73.97170 | 10008 ft | 273 kts | 205° |
| 2026-05-07 18:41 | 40.69549 | -73.97892 | 10435 ft | 287 kts | 205° |
| 2026-05-07 18:41 | 40.67563 | -73.98704 | 10570 ft | 310 kts | 205° |
| 2026-05-07 18:41 | 40.65435 | -73.99582 | 10698 ft | 331 kts | 205° |
| 2026-05-07 18:41 | 40.63188 | -74.00493 | 11099 ft | 341 kts | 204° |
| 2026-05-07 18:42 | 40.60904 | -74.01399 | 11741 ft | 344 kts | 204° |
| 2026-05-07 18:42 | 40.58608 | -74.02296 | 12458 ft | 344 kts | 204° |
| 2026-05-07 18:42 | 40.56315 | -74.03192 | 13175 ft | 344 kts | 204° |
| 2026-05-07 18:42 | 40.54025 | -74.04090 | 13873 ft | 344 kts | 204° |
| 2026-05-07 18:43 | 40.51727 | -74.04998 | 14465 ft | 345 kts | 204° |
| 2026-05-07 18:43 | 40.50204 | -74.05603 | 14842 ft | 346 kts | 204° |
| 2026-05-07 18:43 | 40.47888 | -74.06524 | 15360 ft | 349 kts | 204° |
| 2026-05-07 18:43 | 40.45554 | -74.07454 | 15903 ft | 352 kts | 204° |
| 2026-05-07 18:44 | 40.43205 | -74.08389 | 16464 ft | 355 kts | 204° |
| 2026-05-07 18:44 | 40.40833 | -74.09333 | 17042 ft | 357 kts | 205° |
| 2026-05-07 18:44 | 40.38441 | -74.10282 | 17614 ft | 360 kts | 205° |
| 2026-05-07 18:44 | 40.36033 | -74.11234 | 18182 ft | 363 kts | 205° |
| 2026-05-07 18:45 | 40.33610 | -74.12190 | 18695 ft | 364 kts | 205° |
| 2026-05-07 18:45 | 40.31180 | -74.13148 | 19244 ft | 365 kts | 205° |
| 2026-05-07 18:45 | 40.28752 | -74.14103 | 19812 ft | 364 kts | 205° |
| 2026-05-07 18:45 | 40.26325 | -74.15055 | 20382 ft | 364 kts | 206° |
| 2026-05-07 18:46 | 40.23904 | -74.16004 | 20910 ft | 363 kts | 206° |
| 2026-05-07 18:46 | 40.21488 | -74.16956 | 21417 ft | 363 kts | 206° |
| 2026-05-07 18:46 | 40.19072 | -74.17908 | 21896 ft | 362 kts | 206° |
| 2026-05-07 18:46 | 40.16660 | -74.18858 | 22358 ft | 362 kts | 206° |
| 2026-05-07 18:47 | 40.14240 | -74.19811 | 22811 ft | 362 kts | 206° |
| 2026-05-07 18:47 | 40.11828 | -74.20757 | 23254 ft | 362 kts | 207° |
| 2026-05-07 18:47 | 40.09414 | -74.21701 | 23641 ft | 362 kts | 207° |
| 2026-05-07 18:47 | 40.06997 | -74.22645 | 23979 ft | 363 kts | 207° |
| 2026-05-07 18:48 | 40.04572 | -74.23595 | 24294 ft | 364 kts | 207° |
| 2026-05-07 18:48 | 40.02173 | -74.24624 | 24599 ft | 360 kts | 211° |
| 2026-05-07 18:48 | 39.99934 | -74.26021 | 24905 ft | 353 kts | 218° |
| 2026-05-07 18:48 | 39.97910 | -74.27763 | 25339 ft | 346 kts | 223° |
| 2026-05-07 18:49 | 39.95981 | -74.29620 | 25803 ft | 344 kts | 223° |
| 2026-05-07 18:49 | 39.94057 | -74.31453 | 26262 ft | 342 kts | 223° |
| 2026-05-07 18:49 | 39.92142 | -74.33267 | 26726 ft | 340 kts | 223° |
| 2026-05-07 18:49 | 39.90235 | -74.35074 | 27199 ft | 337 kts | 223° |
| 2026-05-07 18:50 | 39.88341 | -74.36871 | 27679 ft | 335 kts | 223° |
| 2026-05-07 18:50 | 39.86460 | -74.38654 | 28160 ft | 333 kts | 223° |
| 2026-05-07 18:50 | 39.84594 | -74.40425 | 28644 ft | 331 kts | 224° |
| 2026-05-07 18:50 | 39.82738 | -74.42189 | 29132 ft | 329 kts | 224° |
| 2026-05-07 18:51 | 39.81013 | -74.44096 | 29610 ft | 322 kts | 231° |
| 2026-05-07 18:51 | 39.79462 | -74.46177 | 30082 ft | 319 kts | 231° |
| 2026-05-07 18:51 | 39.77914 | -74.48241 | 30495 ft | 318 kts | 231° |
| 2026-05-07 18:51 | 39.76373 | -74.50284 | 30899 ft | 316 kts | 231° |
| 2026-05-07 18:52 | 39.74836 | -74.52318 | 31295 ft | 315 kts | 231° |
| 2026-05-07 18:52 | 39.73306 | -74.54345 | 31688 ft | 313 kts | 232° |
| 2026-05-07 18:52 | 39.71784 | -74.56360 | 32081 ft | 312 kts | 232° |
| 2026-05-07 18:52 | 39.70269 | -74.58368 | 32481 ft | 311 kts | 232° |
| 2026-05-07 18:53 | 39.68760 | -74.60368 | 32884 ft | 309 kts | 232° |
| 2026-05-07 18:53 | 39.67257 | -74.62358 | 33290 ft | 308 kts | 232° |
| 2026-05-07 18:53 | 39.65760 | -74.64333 | 33706 ft | 306 kts | 232° |
| 2026-05-07 18:53 | 39.64266 | -74.66303 | 33876 ft | 307 kts | 232° |
| 2026-05-07 18:54 | 39.62751 | -74.68306 | 33903 ft | 314 kts | 232° |
| 2026-05-07 18:54 | 39.59628 | -74.72434 | 33902 ft | 326 kts | 232° |
| 2026-05-07 18:55 | 39.56430 | -74.76641 | 33903 ft | 328 kts | 232° |
| 2026-05-07 18:55 | 39.53222 | -74.80848 | 33901 ft | 329 kts | 232° |
| 2026-05-07 18:56 | 39.50006 | -74.85060 | 33901 ft | 329 kts | 232° |
| 2026-05-07 18:56 | 39.46792 | -74.89272 | 33907 ft | 329 kts | 232° |
| 2026-05-07 18:57 | 39.43578 | -74.93483 | 33909 ft | 329 kts | 232° |
| 2026-05-07 18:57 | 39.40362 | -74.97688 | 33908 ft | 329 kts | 232° |
| 2026-05-07 18:58 | 39.37138 | -75.01891 | 33904 ft | 329 kts | 232° |
| 2026-05-07 18:58 | 39.33909 | -75.06093 | 33880 ft | 330 kts | 232° |
| 2026-05-07 18:59 | 39.30677 | -75.10296 | 33880 ft | 330 kts | 232° |
| 2026-05-07 18:59 | 39.27351 | -75.14406 | 33876 ft | 332 kts | 230° |
| 2026-05-07 19:00 | 39.23903 | -75.18391 | 33874 ft | 333 kts | 229° |
| 2026-05-07 19:00 | 39.20457 | -75.22356 | 33874 ft | 334 kts | 230° |
| 2026-05-07 19:01 | 39.17007 | -75.26361 | 33888 ft | 334 kts | 230° |
| 2026-05-07 19:01 | 39.13539 | -75.30409 | 33900 ft | 334 kts | 230° |
| 2026-05-07 19:02 | 39.10110 | -75.34409 | 33898 ft | 335 kts | 230° |
| 2026-05-07 19:02 | 39.06647 | -75.38440 | 33898 ft | 336 kts | 230° |
| 2026-05-07 19:03 | 39.03103 | -75.42380 | 33901 ft | 343 kts | 223° |
| 2026-05-07 19:03 | 39.00942 | -75.43823 | 33891 ft | 359 kts | 213° |
| 2026-05-07 19:03 | 38.98452 | -75.44613 | 33888 ft | 380 kts | 202° |
| 2026-05-07 19:04 | 38.93150 | -75.45327 | 33877 ft | 384 kts | 201° |
| 2026-05-07 19:04 | 38.87837 | -75.46037 | 33883 ft | 384 kts | 201° |
| 2026-05-07 19:05 | 38.82513 | -75.46767 | 33880 ft | 385 kts | 201° |
| 2026-05-07 19:05 | 38.77185 | -75.47506 | 33879 ft | 386 kts | 201° |
| 2026-05-07 19:06 | 38.71842 | -75.48245 | 33879 ft | 387 kts | 201° |
| 2026-05-07 19:06 | 38.63806 | -75.49346 | 33883 ft | 388 kts | 201° |
| 2026-05-07 19:07 | 38.58433 | -75.50070 | 33885 ft | 389 kts | 201° |
| 2026-05-07 19:07 | 38.53049 | -75.50795 | 33888 ft | 389 kts | 201° |
| 2026-05-07 19:08 | 38.47664 | -75.51521 | 33884 ft | 390 kts | 201° |
| 2026-05-07 19:08 | 38.42264 | -75.52248 | 33872 ft | 390 kts | 200° |
| 2026-05-07 19:09 | 38.36875 | -75.53024 | 33873 ft | 385 kts | 204° |
| 2026-05-07 19:09 | 38.34335 | -75.53850 | 33874 ft | 370 kts | 212° |
| 2026-05-07 19:09 | 38.32021 | -75.55144 | 33875 ft | 358 kts | 219° |
| 2026-05-07 19:10 | 38.27937 | -75.58598 | 33877 ft | 352 kts | 224° |
| 2026-05-07 19:10 | 38.23902 | -75.62127 | 33885 ft | 353 kts | 224° |
| 2026-05-07 19:11 | 38.19847 | -75.65648 | 33887 ft | 353 kts | 224° |
| 2026-05-07 19:11 | 38.15783 | -75.69167 | 33894 ft | 354 kts | 224° |
| 2026-05-07 19:12 | 38.11718 | -75.72696 | 33903 ft | 354 kts | 224° |
| 2026-05-07 19:12 | 38.07652 | -75.76220 | 33898 ft | 354 kts | 224° |
| 2026-05-07 19:13 | 38.03577 | -75.79757 | 33903 ft | 355 kts | 224° |
| 2026-05-07 19:13 | 37.99496 | -75.83282 | 33902 ft | 355 kts | 224° |
| 2026-05-07 19:14 | 37.95402 | -75.86809 | 33906 ft | 356 kts | 224° |
| 2026-05-07 19:14 | 37.91307 | -75.90343 | 33910 ft | 356 kts | 224° |
| 2026-05-07 19:15 | 37.87209 | -75.93873 | 33913 ft | 357 kts | 224° |
| 2026-05-07 19:15 | 37.83102 | -75.97398 | 33914 ft | 357 kts | 223° |
| 2026-05-07 19:16 | 37.78984 | -76.00926 | 33917 ft | 357 kts | 224° |
| 2026-05-07 19:16 | 37.74871 | -76.04459 | 33912 ft | 358 kts | 224° |
| 2026-05-07 19:17 | 37.70744 | -76.07990 | 33912 ft | 359 kts | 223° |
| 2026-05-07 19:17 | 37.66609 | -76.11516 | 33910 ft | 359 kts | 223° |
| 2026-05-07 19:18 | 37.62472 | -76.15054 | 33911 ft | 359 kts | 224° |
| 2026-05-07 19:18 | 37.58281 | -76.18527 | 33909 ft | 362 kts | 221° |
| 2026-05-07 19:19 | 37.53944 | -76.21803 | 33910 ft | 364 kts | 220° |
| 2026-05-07 19:19 | 37.49575 | -76.25043 | 33914 ft | 364 kts | 221° |
| 2026-05-07 19:20 | 37.45225 | -76.28313 | 33925 ft | 365 kts | 221° |
| 2026-05-07 19:20 | 37.41582 | -76.31074 | 33922 ft | 365 kts | 221° |
| 2026-05-07 19:21 | 37.37234 | -76.34377 | 33917 ft | 365 kts | 221° |
| 2026-05-07 19:21 | 37.32868 | -76.37674 | 33916 ft | 366 kts | 221° |
| 2026-05-07 19:22 | 37.28493 | -76.40961 | 33906 ft | 367 kts | 221° |
| 2026-05-07 19:22 | 37.24114 | -76.44257 | 33905 ft | 367 kts | 221° |
| 2026-05-07 19:23 | 37.19725 | -76.47558 | 33902 ft | 368 kts | 221° |
| 2026-05-07 19:23 | 37.15333 | -76.50862 | 33902 ft | 368 kts | 221° |
| 2026-05-07 19:24 | 37.10933 | -76.54170 | 33905 ft | 369 kts | 221° |
| 2026-05-07 19:24 | 37.06524 | -76.57471 | 33892 ft | 370 kts | 221° |
| 2026-05-07 19:25 | 37.02101 | -76.60775 | 33898 ft | 370 kts | 221° |
| 2026-05-07 19:25 | 36.97671 | -76.64084 | 33898 ft | 371 kts | 221° |
| 2026-05-07 19:26 | 36.93232 | -76.67403 | 33898 ft | 372 kts | 221° |
| 2026-05-07 19:26 | 36.88774 | -76.70724 | 33899 ft | 373 kts | 221° |
| 2026-05-07 19:27 | 36.84307 | -76.74038 | 33898 ft | 374 kts | 221° |
| 2026-05-07 19:27 | 36.79825 | -76.77355 | 33900 ft | 375 kts | 221° |
| 2026-05-07 19:28 | 36.75366 | -76.80663 | 33904 ft | 375 kts | 221° |
| 2026-05-07 19:28 | 36.70845 | -76.84013 | 33907 ft | 376 kts | 221° |
| 2026-05-07 19:29 | 36.66373 | -76.87329 | 33916 ft | 377 kts | 221° |
| 2026-05-07 19:29 | 36.61860 | -76.90662 | 33913 ft | 377 kts | 221° |
| 2026-05-07 19:30 | 36.57342 | -76.93995 | 33909 ft | 377 kts | 221° |
| 2026-05-07 19:30 | 36.52821 | -76.97325 | 33900 ft | 378 kts | 221° |
| 2026-05-07 19:31 | 36.48296 | -77.00661 | 33893 ft | 378 kts | 221° |
| 2026-05-07 19:31 | 36.43760 | -77.03988 | 33893 ft | 379 kts | 221° |
| 2026-05-07 19:32 | 36.39224 | -77.07319 | 33900 ft | 379 kts | 221° |
| 2026-05-07 19:32 | 36.34684 | -77.10640 | 33903 ft | 379 kts | 221° |
| 2026-05-07 19:33 | 36.30133 | -77.13956 | 33906 ft | 379 kts | 221° |
| 2026-05-07 19:33 | 36.25593 | -77.17273 | 33913 ft | 379 kts | 222° |
| 2026-05-07 19:34 | 36.21054 | -77.20592 | 33914 ft | 379 kts | 222° |
| 2026-05-07 19:34 | 36.16513 | -77.23904 | 33908 ft | 378 kts | 222° |
| 2026-05-07 19:35 | 36.11973 | -77.27206 | 33910 ft | 378 kts | 222° |
| 2026-05-07 19:35 | 36.07436 | -77.30499 | 33872 ft | 378 kts | 222° |
| 2026-05-07 19:36 | 36.03090 | -77.34031 | 33878 ft | 368 kts | 228° |
| 2026-05-07 19:36 | 35.99058 | -77.37942 | 33878 ft | 369 kts | 228° |
| 2026-05-07 19:37 | 35.95022 | -77.41842 | 33878 ft | 369 kts | 228° |
| 2026-05-07 19:37 | 35.90958 | -77.45766 | 33879 ft | 368 kts | 228° |
| 2026-05-07 19:38 | 35.86926 | -77.49659 | 33888 ft | 368 kts | 227° |
| 2026-05-07 19:38 | 35.82901 | -77.53541 | 33885 ft | 368 kts | 227° |
| 2026-05-07 19:39 | 35.78869 | -77.57419 | 33889 ft | 368 kts | 227° |
| 2026-05-07 19:39 | 35.74833 | -77.61293 | 33886 ft | 368 kts | 227° |
| 2026-05-07 19:40 | 35.70794 | -77.65164 | 33866 ft | 368 kts | 227° |
| 2026-05-07 19:40 | 35.66751 | -77.69037 | 33884 ft | 368 kts | 227° |
| 2026-05-07 19:41 | 35.62708 | -77.72908 | 33877 ft | 368 kts | 227° |
| 2026-05-07 19:41 | 35.58666 | -77.76777 | 33869 ft | 368 kts | 227° |
| 2026-05-07 19:42 | 35.54620 | -77.80630 | 33864 ft | 368 kts | 227° |
| 2026-05-07 19:42 | 35.50600 | -77.84460 | 33855 ft | 368 kts | 227° |
| 2026-05-07 19:43 | 35.46557 | -77.88310 | 33834 ft | 368 kts | 227° |
| 2026-05-07 19:43 | 35.42521 | -77.92154 | 33822 ft | 367 kts | 227° |
| 2026-05-07 19:44 | 35.38476 | -77.96000 | 33829 ft | 368 kts | 227° |
| 2026-05-07 19:44 | 35.34397 | -77.99870 | 33825 ft | 369 kts | 227° |
| 2026-05-07 19:45 | 35.30330 | -78.03720 | 33821 ft | 370 kts | 227° |
| 2026-05-07 19:45 | 35.26254 | -78.07573 | 33826 ft | 370 kts | 227° |
| 2026-05-07 19:46 | 35.22177 | -78.11422 | 33831 ft | 370 kts | 227° |
| 2026-05-07 19:46 | 35.18123 | -78.15254 | 33839 ft | 371 kts | 227° |
| 2026-05-07 19:47 | 35.14032 | -78.19109 | 33840 ft | 372 kts | 227° |
| 2026-05-07 19:47 | 35.09928 | -78.22961 | 33843 ft | 372 kts | 227° |
| 2026-05-07 19:48 | 35.05821 | -78.26823 | 33841 ft | 373 kts | 227° |
| 2026-05-07 19:48 | 35.01717 | -78.30679 | 33833 ft | 372 kts | 226° |
| 2026-05-07 19:49 | 34.97609 | -78.34531 | 33842 ft | 373 kts | 226° |
| 2026-05-07 19:49 | 34.93493 | -78.38377 | 33845 ft | 373 kts | 226° |
| 2026-05-07 19:50 | 34.89380 | -78.42225 | 33852 ft | 373 kts | 226° |
| 2026-05-07 19:50 | 34.85252 | -78.46083 | 33869 ft | 374 kts | 226° |
| 2026-05-07 19:51 | 34.81126 | -78.49933 | 33870 ft | 373 kts | 226° |
| 2026-05-07 19:51 | 34.77009 | -78.53771 | 33863 ft | 373 kts | 226° |
| 2026-05-07 19:52 | 34.72891 | -78.57597 | 33855 ft | 372 kts | 226° |
| 2026-05-07 19:52 | 34.68774 | -78.61427 | 33854 ft | 373 kts | 226° |
| 2026-05-07 19:53 | 34.64655 | -78.65248 | 33855 ft | 373 kts | 226° |
| 2026-05-07 19:53 | 34.60533 | -78.69066 | 33856 ft | 372 kts | 226° |
| 2026-05-07 19:54 | 34.56387 | -78.72902 | 33864 ft | 372 kts | 226° |
| 2026-05-07 19:54 | 34.52263 | -78.76714 | 33852 ft | 373 kts | 226° |
| 2026-05-07 19:55 | 34.48125 | -78.80526 | 33845 ft | 374 kts | 226° |
| 2026-05-07 19:55 | 34.43972 | -78.84334 | 33853 ft | 375 kts | 225° |
| 2026-05-07 19:56 | 34.39714 | -78.88040 | 33847 ft | 378 kts | 224° |
| 2026-05-07 19:56 | 34.35368 | -78.91645 | 33849 ft | 379 kts | 223° |
| 2026-05-07 19:57 | 34.31015 | -78.95262 | 33851 ft | 379 kts | 224° |
| 2026-05-07 19:57 | 34.27410 | -78.98285 | 33845 ft | 380 kts | 224° |
| 2026-05-07 19:58 | 34.23068 | -79.01945 | 33842 ft | 381 kts | 224° |
| 2026-05-07 19:58 | 34.18711 | -79.05614 | 33833 ft | 383 kts | 223° |
| 2026-05-07 19:59 | 34.14327 | -79.09295 | 33833 ft | 385 kts | 223° |
| 2026-05-07 19:59 | 34.09919 | -79.12987 | 33836 ft | 387 kts | 223° |
| 2026-05-07 20:00 | 34.05492 | -79.16691 | 33834 ft | 388 kts | 223° |
| 2026-05-07 20:00 | 34.01052 | -79.20402 | 33842 ft | 388 kts | 223° |
| 2026-05-07 20:01 | 33.96599 | -79.24118 | 33854 ft | 390 kts | 223° |
| 2026-05-07 20:01 | 33.92138 | -79.27833 | 33852 ft | 391 kts | 223° |
| 2026-05-07 20:02 | 33.87661 | -79.31564 | 33861 ft | 392 kts | 223° |
| 2026-05-07 20:02 | 33.83172 | -79.35299 | 33860 ft | 393 kts | 223° |
| 2026-05-07 20:03 | 33.78699 | -79.39018 | 33857 ft | 393 kts | 223° |
| 2026-05-07 20:03 | 33.74189 | -79.42761 | 33858 ft | 394 kts | 223° |
| 2026-05-07 20:04 | 33.69674 | -79.46505 | 33861 ft | 395 kts | 222° |
| 2026-05-07 20:04 | 33.65140 | -79.50257 | 33863 ft | 396 kts | 222° |
| 2026-05-07 20:05 | 33.60627 | -79.53987 | 33858 ft | 397 kts | 222° |
| 2026-05-07 20:05 | 33.56071 | -79.57750 | 33859 ft | 398 kts | 222° |
| 2026-05-07 20:06 | 33.51502 | -79.61522 | 33860 ft | 399 kts | 222° |
| 2026-05-07 20:06 | 33.46923 | -79.65295 | 33864 ft | 400 kts | 222° |
| 2026-05-07 20:07 | 33.42331 | -79.69064 | 33869 ft | 401 kts | 221° |
| 2026-05-07 20:07 | 33.37723 | -79.72843 | 33871 ft | 402 kts | 221° |
| 2026-05-07 20:08 | 33.33107 | -79.76628 | 33870 ft | 403 kts | 221° |
| 2026-05-07 20:08 | 33.28477 | -79.80417 | 33871 ft | 403 kts | 221° |
| 2026-05-07 20:09 | 33.23846 | -79.84203 | 33878 ft | 404 kts | 221° |
| 2026-05-07 20:10 | 33.16877 | -79.89892 | 33882 ft | 405 kts | 221° |
| 2026-05-07 20:10 | 33.12248 | -79.93668 | 33885 ft | 406 kts | 221° |
| 2026-05-07 20:11 | 33.07575 | -79.97469 | 33882 ft | 407 kts | 221° |
| 2026-05-07 20:11 | 33.02898 | -80.01270 | 33899 ft | 407 kts | 221° |
| 2026-05-07 20:12 | 32.98212 | -80.05077 | 33906 ft | 408 kts | 221° |
| 2026-05-07 20:12 | 32.93516 | -80.08885 | 33903 ft | 409 kts | 221° |
| 2026-05-07 20:13 | 32.88809 | -80.12693 | 33899 ft | 409 kts | 220° |
| 2026-05-07 20:13 | 32.84093 | -80.16500 | 33899 ft | 410 kts | 220° |
| 2026-05-07 20:14 | 32.79399 | -80.20295 | 33891 ft | 411 kts | 220° |
| 2026-05-07 20:14 | 32.74659 | -80.24116 | 33895 ft | 412 kts | 220° |
| 2026-05-07 20:15 | 32.69913 | -80.27945 | 33899 ft | 413 kts | 220° |
| 2026-05-07 20:15 | 32.65153 | -80.31780 | 33897 ft | 413 kts | 220° |
| 2026-05-07 20:16 | 32.60377 | -80.35611 | 33888 ft | 414 kts | 220° |
| 2026-05-07 20:16 | 32.55541 | -80.39360 | 33901 ft | 417 kts | 218° |
| 2026-05-07 20:17 | 32.50480 | -80.42787 | 33903 ft | 420 kts | 216° |
| 2026-05-07 20:17 | 32.45370 | -80.46102 | 33908 ft | 421 kts | 216° |
| 2026-05-07 20:18 | 32.40249 | -80.49494 | 33907 ft | 422 kts | 216° |
| 2026-05-07 20:18 | 32.35154 | -80.52942 | 33920 ft | 422 kts | 216° |
| 2026-05-07 20:19 | 32.30037 | -80.56399 | 33926 ft | 424 kts | 216° |
| 2026-05-07 20:19 | 32.24901 | -80.59844 | 33929 ft | 425 kts | 216° |
| 2026-05-07 20:20 | 32.19782 | -80.63273 | 33927 ft | 426 kts | 216° |
| 2026-05-07 20:20 | 32.14619 | -80.66742 | 33927 ft | 427 kts | 216° |
| 2026-05-07 20:21 | 32.09441 | -80.70211 | 33919 ft | 428 kts | 216° |
| 2026-05-07 20:21 | 32.04252 | -80.73679 | 33911 ft | 429 kts | 216° |
| 2026-05-07 20:22 | 31.99043 | -80.77149 | 33903 ft | 430 kts | 216° |
| 2026-05-07 20:22 | 31.93856 | -80.80596 | 33898 ft | 431 kts | 216° |
| 2026-05-07 20:23 | 31.88629 | -80.84068 | 33892 ft | 432 kts | 216° |
| 2026-05-07 20:23 | 31.83397 | -80.87552 | 33891 ft | 432 kts | 216° |
| 2026-05-07 20:24 | 31.78157 | -80.91033 | 33899 ft | 433 kts | 216° |
| 2026-05-07 20:24 | 31.72907 | -80.94511 | 33900 ft | 433 kts | 216° |
| 2026-05-07 20:25 | 31.67649 | -80.97989 | 33911 ft | 434 kts | 216° |
| 2026-05-07 20:25 | 31.62391 | -81.01464 | 33913 ft | 434 kts | 216° |
| 2026-05-07 20:26 | 31.57118 | -81.04931 | 33920 ft | 435 kts | 215° |
| 2026-05-07 20:26 | 31.51767 | -81.08264 | 33923 ft | 436 kts | 214° |
| 2026-05-07 20:27 | 31.46392 | -81.11484 | 33927 ft | 437 kts | 213° |
| 2026-05-07 20:27 | 31.40991 | -81.14737 | 33935 ft | 436 kts | 214° |
| 2026-05-07 20:28 | 31.35602 | -81.18026 | 33942 ft | 437 kts | 213° |
| 2026-05-07 20:28 | 31.30183 | -81.21258 | 33920 ft | 437 kts | 213° |
| 2026-05-07 20:29 | 31.24741 | -81.24459 | 33913 ft | 438 kts | 213° |
| 2026-05-07 20:29 | 31.19163 | -81.27372 | 33900 ft | 446 kts | 203° |
| 2026-05-07 20:30 | 31.12898 | -81.28264 | 33895 ft | 463 kts | 187° |
| 2026-05-07 20:30 | 31.06455 | -81.28231 | 33899 ft | 463 kts | 187° |
| 2026-05-07 20:31 | 31.00045 | -81.28210 | 33908 ft | 463 kts | 187° |
| 2026-05-07 20:31 | 30.93593 | -81.28193 | 33926 ft | 463 kts | 187° |
| 2026-05-07 20:32 | 30.87139 | -81.28177 | 33944 ft | 464 kts | 187° |
| 2026-05-07 20:32 | 30.80685 | -81.28168 | 33971 ft | 464 kts | 187° |
| 2026-05-07 20:33 | 30.74225 | -81.28152 | 33970 ft | 464 kts | 187° |
| 2026-05-07 20:33 | 30.67756 | -81.28136 | 33973 ft | 465 kts | 188° |
| 2026-05-07 20:34 | 30.61286 | -81.28117 | 33975 ft | 465 kts | 188° |
| 2026-05-07 20:34 | 30.54785 | -81.27878 | 33974 ft | 470 kts | 185° |
| 2026-05-07 20:35 | 30.48253 | -81.27308 | 33966 ft | 472 kts | 184° |
| 2026-05-07 20:35 | 30.41704 | -81.26701 | 33968 ft | 472 kts | 184° |
| 2026-05-07 20:36 | 30.35152 | -81.26186 | 33962 ft | 472 kts | 185° |
| 2026-05-07 20:36 | 30.28588 | -81.25720 | 33961 ft | 473 kts | 185° |
| 2026-05-07 20:37 | 30.22020 | -81.25248 | 33972 ft | 473 kts | 185° |
| 2026-05-07 20:37 | 30.15444 | -81.24748 | 33995 ft | 473 kts | 185° |
| 2026-05-07 20:38 | 30.08869 | -81.24243 | 33650 ft | 472 kts | 185° |
| 2026-05-07 20:38 | 30.05592 | -81.23998 | 33395 ft | 472 kts | 185° |
| 2026-05-07 20:38 | 30.02313 | -81.23759 | 33145 ft | 472 kts | 185° |
| 2026-05-07 20:38 | 29.99038 | -81.23522 | 32890 ft | 472 kts | 185° |
| 2026-05-07 20:39 | 29.95753 | -81.23282 | 32634 ft | 472 kts | 185° |
| 2026-05-07 20:39 | 29.92480 | -81.23039 | 32383 ft | 472 kts | 185° |
| 2026-05-07 20:39 | 29.89200 | -81.22793 | 31587 ft | 473 kts | 185° |
| 2026-05-07 20:39 | 29.85912 | -81.22545 | 30757 ft | 474 kts | 185° |
| 2026-05-07 20:40 | 29.82623 | -81.22296 | 29930 ft | 474 kts | 185° |
| 2026-05-07 20:40 | 29.79321 | -81.22048 | 28999 ft | 475 kts | 184° |
| 2026-05-07 20:40 | 29.76021 | -81.21804 | 28084 ft | 476 kts | 184° |
| 2026-05-07 20:40 | 29.72707 | -81.21560 | 27217 ft | 478 kts | 184° |
| 2026-05-07 20:41 | 29.69373 | -81.21314 | 26338 ft | 481 kts | 184° |
| 2026-05-07 20:41 | 29.66028 | -81.21045 | 25507 ft | 483 kts | 183° |
| 2026-05-07 20:41 | 29.62666 | -81.20757 | 24696 ft | 485 kts | 182° |
| 2026-05-07 20:41 | 29.59310 | -81.20461 | 23923 ft | 482 kts | 182° |
| 2026-05-07 20:42 | 29.55976 | -81.20162 | 23066 ft | 477 kts | 182° |
| 2026-05-07 20:42 | 29.52683 | -81.19868 | 22161 ft | 472 kts | 182° |
| 2026-05-07 20:42 | 29.49429 | -81.19584 | 21278 ft | 467 kts | 182° |
| 2026-05-07 20:42 | 29.46201 | -81.19306 | 20435 ft | 462 kts | 182° |
| 2026-05-07 20:43 | 29.43032 | -81.19031 | 19601 ft | 455 kts | 181° |
| 2026-05-07 20:43 | 29.39907 | -81.18760 | 18791 ft | 441 kts | 181° |
| 2026-05-07 20:43 | 29.36905 | -81.18496 | 17964 ft | 424 kts | 181° |
| 2026-05-07 20:43 | 29.34006 | -81.18244 | 17074 ft | 412 kts | 181° |
| 2026-05-07 20:44 | 29.31186 | -81.18003 | 16210 ft | 401 kts | 181° |
| 2026-05-07 20:44 | 29.28474 | -81.17769 | 15844 ft | 378 kts | 181° |
| 2026-05-07 20:44 | 29.26769 | -81.17618 | 15518 ft | 366 kts | 181° |
| 2026-05-07 20:44 | 29.24269 | -81.17399 | 14868 ft | 356 kts | 181° |
| 2026-05-07 20:45 | 29.21821 | -81.17190 | 14548 ft | 353 kts | 181° |
| 2026-05-07 20:45 | 29.19382 | -81.16929 | 14113 ft | 353 kts | 175° |
| 2026-05-07 20:45 | 29.16992 | -81.16190 | 13581 ft | 360 kts | 165° |
| 2026-05-07 20:45 | 29.14650 | -81.15193 | 13102 ft | 357 kts | 164° |
| 2026-05-07 20:46 | 29.12327 | -81.14194 | 12598 ft | 355 kts | 164° |
| 2026-05-07 20:46 | 29.10042 | -81.13209 | 12401 ft | 345 kts | 164° |
| 2026-05-07 20:46 | 29.07840 | -81.12262 | 12269 ft | 329 kts | 165° |
| 2026-05-07 20:46 | 29.05747 | -81.11361 | 11894 ft | 316 kts | 165° |
| 2026-05-07 20:47 | 29.03711 | -81.10499 | 11535 ft | 310 kts | 166° |
| 2026-05-07 20:47 | 29.01677 | -81.09709 | 11293 ft | 307 kts | 169° |
| 2026-05-07 20:47 | 28.99612 | -81.09420 | 11073 ft | 295 kts | 189° |
| 2026-05-07 20:47 | 28.97660 | -81.09956 | 10902 ft | 285 kts | 209° |
| 2026-05-07 20:48 | 28.96009 | -81.11155 | 10748 ft | 281 kts | 220° |
| 2026-05-07 20:48 | 28.94448 | -81.12487 | 10591 ft | 280 kts | 220° |
| 2026-05-07 20:48 | 28.92884 | -81.13822 | 10434 ft | 280 kts | 220° |
| 2026-05-07 20:48 | 28.91325 | -81.15150 | 10271 ft | 280 kts | 220° |
| 2026-05-07 20:49 | 28.89766 | -81.16475 | 10113 ft | 279 kts | 220° |
| 2026-05-07 20:49 | 28.88210 | -81.17796 | 9953 ft | 279 kts | 220° |
| 2026-05-07 20:49 | 28.86657 | -81.19117 | 9810 ft | 277 kts | 220° |
| 2026-05-07 20:49 | 28.85133 | -81.20411 | 9683 ft | 269 kts | 220° |
| 2026-05-07 20:50 | 28.83635 | -81.21684 | 9226 ft | 272 kts | 220° |
| 2026-05-07 20:50 | 28.82113 | -81.22982 | 8753 ft | 272 kts | 220° |
| 2026-05-07 20:50 | 28.80574 | -81.24293 | 8113 ft | 272 kts | 219° |
| 2026-05-07 20:50 | 28.79077 | -81.25568 | 7541 ft | 273 kts | 219° |
| 2026-05-07 20:51 | 28.77544 | -81.26874 | 7087 ft | 278 kts | 219° |
| 2026-05-07 20:51 | 28.75974 | -81.28212 | 6493 ft | 283 kts | 219° |
| 2026-05-07 20:51 | 28.74385 | -81.29564 | 5873 ft | 280 kts | 219° |
| 2026-05-07 20:51 | 28.72828 | -81.30884 | 5267 ft | 278 kts | 219° |
| 2026-05-07 20:52 | 28.71249 | -81.32137 | 4683 ft | 275 kts | 210° |
| 2026-05-07 20:52 | 28.69471 | -81.32842 | 4339 ft | 267 kts | 192° |
| 2026-05-07 20:52 | 28.67647 | -81.32942 | 4165 ft | 259 kts | 182° |
| 2026-05-07 20:52 | 28.65875 | -81.32922 | 4008 ft | 252 kts | 183° |
| 2026-05-07 20:53 | 28.64120 | -81.32905 | 3714 ft | 252 kts | 182° |
| 2026-05-07 20:53 | 28.62398 | -81.32885 | 3405 ft | 243 kts | 182° |
| 2026-05-07 20:53 | 28.60739 | -81.32867 | 3108 ft | 234 kts | 183° |
| 2026-05-07 20:53 | 28.59135 | -81.32850 | 2808 ft | 227 kts | 183° |
| 2026-05-07 20:54 | 28.57575 | -81.32834 | 2518 ft | 222 kts | 184° |
| 2026-05-07 20:54 | 28.56063 | -81.32817 | 2255 ft | 213 kts | 183° |
| 2026-05-07 20:54 | 28.54615 | -81.32800 | 1983 ft | 204 kts | 184° |
| 2026-05-07 20:54 | 28.53231 | -81.32785 | 1751 ft | 193 kts | 184° |
| 2026-05-07 20:55 | 28.51924 | -81.32771 | 1480 ft | 183 kts | 184° |
| 2026-05-07 20:55 | 28.50682 | -81.32757 | 1256 ft | 170 kts | 184° |
| 2026-05-07 20:55 | 28.49568 | -81.32744 | 1047 ft | 154 kts | 185° |
| 2026-05-07 20:55 | 28.48536 | -81.32734 | 875 ft | 143 kts | 184° |
| 2026-05-07 20:56 | 28.47536 | -81.32721 | 640 ft | 145 kts | 182° |
| 2026-05-07 20:56 | 28.46536 | -81.32717 | 479 ft | 142 kts | 185° |
| 2026-05-07 20:56 | 28.45569 | -81.32708 | 292 ft | 139 kts | 182° |
| 2026-05-07 20:56 | 28.44601 | -81.32695 | 116 ft | 138 kts | 181° |
| 2026-05-07 20:57 | 28.43762 | -81.32688 | 100 ft | 102 kts | 180° |
| 2026-05-07 20:57 | 28.43171 | -81.32681 | 100 ft | 71 kts | 179° |
| 2026-05-07 20:57 | 28.42793 | -81.32672 | 101 ft | 42 kts | 175° |
| 2026-05-07 20:57 | 28.42604 | -81.32577 | 99 ft | 29 kts | 123° |
| 2026-05-07 20:58 | 28.42502 | -81.32382 | 101 ft | 29 kts | 120° |
| 2026-05-07 20:58 | 28.42403 | -81.32187 | 103 ft | 25 kts | 119° |
| 2026-05-07 20:58 | 28.42318 | -81.32040 | 103 ft | 24 kts | 127° |
| 2026-05-07 20:58 | 28.42263 | -81.31901 | 99 ft | 18 kts | 91° |
| 2026-05-07 20:59 | 28.42204 | -81.31853 | 99 ft | 10 kts | 187° |
| 2026-05-07 20:59 | 28.42105 | -81.31877 | 98 ft | 17 kts | 186° |
| 2026-05-07 20:59 | 28.41980 | -81.31877 | 98 ft | 20 kts | 179° |
| 2026-05-07 20:59 | 28.41835 | -81.31877 | 100 ft | 21 kts | 180° |
| 2026-05-07 21:00 | 28.41750 | -81.31812 | 98 ft | 16 kts | 126° |
| 2026-05-07 21:00 | 28.41634 | -81.31791 | 98 ft | 19 kts | 180° |
| 2026-05-07 21:00 | 28.41494 | -81.31792 | 100 ft | 21 kts | 184° |
| 2026-05-07 21:00 | 28.41337 | -81.31805 | 97 ft | 24 kts | 180° |
| 2026-05-07 21:01 | 28.41185 | -81.31806 | 96 ft | 21 kts | 180° |
| 2026-05-07 21:01 | 28.41055 | -81.31804 | 94 ft | 18 kts | 180° |
| 2026-05-07 21:01 | 28.40997 | -81.31742 | 94 ft | 14 kts | 81° |
| 2026-05-07 21:01 | 28.41005 | -81.31632 | 94 ft | 15 kts | 91° |
| 2026-05-07 21:02 | 28.41060 | -81.31551 | 96 ft | 12 kts | 25° |
| 2026-05-07 21:02 | 28.41090 | -81.31535 | 94 ft | 0 kts | 25° |